Time;durP1;ratioP1;P1;durP2;ratioP2;P2;SDS_P1;SDS_P2;PMS_P1;PMS_P2;Temp;Humidity;BMP_temperature;BMP_pressure;BME280_temperature;BME280_humidity;BME280_pressure;Samples;Min_cycle;Max_cycle;Signal;HPM_P1;HPM_P2
2022/05/06 00:02:05;;;;;;;;;11.40;10.40;;;;;19.25;45.55;99691.22;5051554;28;8823;-76
2022/05/06 00:04:34;;;;;;;;;12.40;12.40;;;;;19.17;46.15;99690.59;5051852;28;8851;-77
2022/05/06 00:07:04;;;;;;;;;12.40;12.40;;;;;19.14;46.08;99688.06;5035648;28;9588;-76
2022/05/06 00:09:33;;;;;;;;;13.40;13.20;;;;;19.09;46.07;99688.22;5001981;28;8867;-77
2022/05/06 00:12:01;;;;;;;;;13.20;12.80;;;;;19.13;45.95;99688.97;5068349;28;8896;-75
2022/05/06 00:14:30;;;;;;;;;10.20;10.20;;;;;19.17;45.72;99687.94;5052841;28;8881;-77
2022/05/06 00:16:59;;;;;;;;;13.80;12.80;;;;;19.16;45.99;99689.72;5053032;28;8873;-76
2022/05/06 00:19:27;;;;;;;;;11.80;11.80;;;;;19.10;45.86;99684.66;5051190;28;8850;-76
2022/05/06 00:21:56;;;;;;;;;12.20;10.40;;;;;19.10;45.80;99689.94;5066227;28;9668;-75
2022/05/06 00:24:28;;;;;;;;;12.80;12.00;;;;;19.04;45.95;99683.09;5051077;28;8875;-77
2022/05/06 00:26:57;;;;;;;;;13.00;13.00;;;;;19.00;46.08;99686.75;5062883;28;8853;-74
2022/05/06 00:29:26;;;;;;;;;12.60;12.60;;;;;19.00;45.93;99681.47;5049864;28;8869;-77
2022/05/06 00:31:54;;;;;;;;;12.00;12.00;;;;;18.92;46.35;99683.47;5049713;28;8859;-77
2022/05/06 00:34:23;;;;;;;;;13.00;13.00;;;;;18.86;46.12;99691.59;5051170;28;8951;-76
2022/05/06 00:36:52;;;;;;;;;13.60;12.00;;;;;18.95;46.02;99682.53;5049541;28;8900;-75
2022/05/06 00:39:21;;;;;;;;;12.40;12.40;;;;;18.97;46.29;99692.13;5033240;28;8839;-75
2022/05/06 00:41:53;;;;;;;;;14.00;11.20;;;;;18.95;45.98;99682.53;5051321;28;8982;-77
2022/05/06 00:44:22;;;;;;;;;14.00;13.00;;;;;18.94;46.09;99694.00;5049592;28;8985;-76
2022/05/06 00:46:53;;;;;;;;;12.40;12.20;;;;;18.87;46.47;99688.06;5049409;28;8851;-76
2022/05/06 00:49:22;;;;;;;;;13.80;12.60;;;;;18.84;46.35;99691.66;5050568;28;8842;-77
2022/05/06 00:51:52;;;;;;;;;12.80;12.80;;;;;18.87;46.42;99693.34;5049008;28;8886;-77
2022/05/06 00:54:23;;;;;;;;;13.80;12.00;;;;;18.89;46.10;99692.38;4976344;28;8868;-77
2022/05/06 00:56:54;;;;;;;;;14.20;14.00;;;;;18.86;46.63;99694.25;4992332;28;8860;-76
2022/05/06 00:59:23;;;;;;;;;13.60;13.60;;;;;18.84;46.58;99691.66;5008107;28;8968;-76
2022/05/06 01:01:51;;;;;;;;;12.20;12.20;;;;;18.82;46.43;99692.63;5026887;28;8948;-75
2022/05/06 01:04:20;;;;;;;;;8.40;8.40;;;;;18.76;46.71;99688.38;5027826;28;8858;-75
2022/05/06 01:06:50;;;;;;;;;12.60;12.60;;;;;18.79;46.42;99696.22;5027598;28;8846;-77
2022/05/06 01:09:19;;;;;;;;;14.40;13.80;;;;;18.79;46.42;99692.69;5011456;28;8842;-76
2022/05/06 01:11:52;;;;;;;;;13.80;13.00;;;;;18.83;46.78;99694.38;5027709;28;8861;-76
2022/05/06 01:14:33;;;;;;;;;16.60;13.20;;;;;18.81;46.61;99686.47;5011204;28;8861;-76
2022/05/06 01:17:25;;;;;;;;;13.60;13.60;;;;;18.86;46.68;99691.59;4933302;28;8936;-76
2022/05/06 01:19:54;;;;;;;;;14.20;12.60;;;;;18.83;46.56;99689.09;4933670;28;8869;-77
2022/05/06 01:22:26;;;;;;;;;13.80;13.80;;;;;18.73;47.22;99690.25;4933540;28;8889;-77
2022/05/06 01:24:55;;;;;;;;;14.20;12.80;;;;;18.76;46.74;99685.72;4933769;28;8896;-75
2022/05/06 01:27:29;;;;;;;;;14.00;14.00;;;;;18.72;46.99;99685.88;4917616;28;8869;-76
2022/05/06 01:30:00;;;;;;;;;14.80;14.80;;;;;18.64;47.44;99688.78;4930660;29;8856;-76
2022/05/06 01:32:30;;;;;;;;;13.00;12.40;;;;;18.51;48.34;99683.00;4901942;28;8859;-77
2022/05/06 01:35:01;;;;;;;;;13.40;13.40;;;;;18.45;48.54;99688.44;4933608;28;9032;-77
2022/05/06 01:37:34;;;;;;;;;14.00;14.00;;;;;18.43;48.35;99677.06;4949320;28;8854;-77
2022/05/06 01:40:04;;;;;;;;;13.80;12.20;;;;;18.39;48.26;99678.06;4933316;28;9583;-76
2022/05/06 01:42:38;;;;;;;;;16.00;16.00;;;;;18.26;48.78;99688.13;4933116;28;8949;-76
2022/05/06 01:45:11;;;;;;;;;14.20;13.60;;;;;18.35;47.98;99676.44;4933161;28;8936;-76
2022/05/06 01:47:44;;;;;;;;;13.20;13.20;;;;;18.35;48.08;99679.09;4917310;28;8855;-76
2022/05/06 01:50:20;;;;;;;;;13.60;13.00;;;;;18.43;47.92;99679.72;4949112;28;8938;-76
2022/05/06 01:52:51;;;;;;;;;14.00;14.00;;;;;18.41;48.08;99677.16;4920646;28;8867;-75
2022/05/06 01:55:20;;;;;;;;;13.00;13.00;;;;;18.45;47.74;99677.88;5013757;28;8855;-77
2022/05/06 01:58:00;;;;;;;;;11.00;11.00;;;;;18.48;47.45;99675.16;5031501;28;8854;-76
2022/05/06 02:00:34;;;;;;;;;14.80;14.20;;;;;18.47;47.50;99682.22;5047955;28;8866;-76
2022/05/06 02:03:04;;;;;;;;;8.80;8.40;;;;;18.52;47.19;99684.72;4966762;28;8862;-76
2022/05/06 02:05:38;;;;;;;;;13.00;13.00;;;;;18.46;47.30;99683.13;5031660;28;8831;-75
2022/05/06 02:08:09;;;;;;;;;12.60;12.20;;;;;18.42;47.30;99686.78;5014687;28;8854;-77
2022/05/06 02:10:41;;;;;;;;;12.60;11.00;;;;;18.45;47.62;99669.97;5048119;28;9580;-76
2022/05/06 02:13:09;;;;;;;;;14.60;14.40;;;;;18.41;47.27;99678.91;5048415;28;8897;-77
2022/05/06 02:15:58;;;;;;;;;12.20;12.20;;;;;18.33;47.70;99673.84;5047557;28;8912;-76
2022/05/06 02:18:42;;;;;;;;;15.60;14.00;;;;;18.35;47.36;99665.88;5047581;28;8865;-77
2022/05/06 02:21:31;;;;;;;;;12.80;12.80;;;;;18.33;47.65;99679.13;5047255;28;8870;-78
2022/05/06 02:24:30;;;;;;;;;11.00;11.00;;;;;18.26;47.70;99675.81;5026196;28;8850;-76
2022/05/06 02:27:12;;;;;;;;;12.00;11.00;;;;;18.24;47.83;99684.69;5009760;28;8849;-77
2022/05/06 02:33:12;;;;;;;;;13.60;12.40;;;;;18.24;47.61;99677.66;5009675;28;8833;-76
2022/05/06 02:35:25;;;;;;;;;14.80;14.80;;;;;18.25;47.63;99686.44;5009963;28;8842;-76
2022/05/06 02:37:55;;;;;;;;;12.20;12.20;;;;;18.23;47.59;99683.81;5009863;28;8970;-77
2022/05/06 02:40:29;;;;;;;;;16.20;12.80;;;;;18.23;47.54;99678.53;5010079;28;8869;-75
2022/05/06 02:43:00;;;;;;;;;12.40;12.20;;;;;18.20;48.01;99683.91;4993578;28;9024;-77
2022/05/06 02:45:29;;;;;;;;;17.40;13.60;;;;;18.16;48.20;99676.13;4993871;28;8848;-77
2022/05/06 02:47:59;;;;;;;;;13.80;12.80;;;;;18.09;47.95;99686.88;5010047;28;8908;-77
2022/05/06 02:50:29;;;;;;;;;14.00;14.00;;;;;18.08;48.04;99681.66;5009844;28;8849;-77
2022/05/06 02:52:58;;;;;;;;;13.40;13.40;;;;;18.01;48.85;99683.56;4992666;28;8846;-76
2022/05/06 02:55:28;;;;;;;;;15.40;14.00;;;;;18.04;48.47;99690.56;4993415;28;8833;-77
2022/05/06 02:57:59;;;;;;;;;13.80;13.20;;;;;17.95;49.13;99686.41;4977855;28;8849;-78
2022/05/06 03:00:28;;;;;;;;;18.20;17.40;;;;;17.93;48.65;99682.94;5016722;28;9688;-77
2022/05/06 03:02:59;;;;;;;;;12.00;12.00;;;;;17.97;48.85;99681.94;5029712;28;8839;-75
2022/05/06 03:05:32;;;;;;;;;15.80;14.20;;;;;17.97;48.95;99683.72;5055348;28;8931;-76
2022/05/06 03:08:02;;;;;;;;;12.60;11.80;;;;;17.90;48.98;99681.28;5047010;28;8862;-77
2022/05/06 03:10:34;;;;;;;;;14.40;14.40;;;;;17.91;49.00;99687.41;5064012;28;8831;-76
2022/05/06 03:13:05;;;;;;;;;11.60;10.80;;;;;17.95;48.69;99675.84;5047049;28;9621;-77
2022/05/06 03:15:36;;;;;;;;;12.00;10.80;;;;;17.96;48.62;99685.50;4997248;28;8846;-76
2022/05/06 03:18:10;;;;;;;;;15.40;14.00;;;;;17.85;49.09;99682.31;5046757;28;8874;-76
2022/05/06 03:20:40;;;;;;;;;14.40;14.40;;;;;17.82;49.07;99682.34;5047347;28;8965;-76
2022/05/06 03:23:08;;;;;;;;;17.40;14.40;;;;;17.80;49.36;99687.66;5047569;28;8858;-75
2022/05/06 03:25:38;;;;;;;;;14.60;14.60;;;;;17.76;49.40;99696.56;5047138;28;8874;-76
2022/05/06 03:28:10;;;;;;;;;12.60;11.40;;;;;17.70;49.26;99691.47;5063814;28;8827;-77
2022/05/06 03:30:44;;;;;;;;;13.20;13.20;;;;;17.66;49.63;99695.09;5047578;28;9604;-75
2022/05/06 03:33:22;;;;;;;;;16.80;15.80;;;;;17.68;49.30;99696.78;5033376;28;8862;-75
2022/05/06 03:35:51;;;;;;;;;15.80;15.20;;;;;17.73;49.58;99696.66;5048764;28;8936;-75
2022/05/06 03:38:20;;;;;;;;;17.00;14.20;;;;;17.79;49.14;99698.25;5028749;28;8863;-76
2022/05/06 03:40:56;;;;;;;;;14.20;14.20;;;;;17.85;49.32;99695.50;5029102;28;8839;-77
2022/05/06 03:43:27;;;;;;;;;17.40;15.60;;;;;17.89;49.17;99691.88;5028825;28;8953;-78
2022/05/06 03:45:59;;;;;;;;;12.80;12.80;;;;;17.86;49.42;99700.75;5012580;28;8835;-77
2022/05/06 03:48:28;;;;;;;;;14.80;13.00;;;;;17.83;49.21;99702.56;5028824;28;8843;-75
2022/05/06 03:53:48;;;;;;;;;13.40;12.80;;;;;17.72;49.83;99706.34;5045008;28;8848;-76
2022/05/06 03:56:19;;;;;;;;;13.20;13.20;;;;;17.78;49.55;99715.84;4996146;28;9701;-76
2022/05/06 03:58:48;;;;;;;;;18.20;18.00;;;;;17.71;49.58;99711.66;5028718;28;8847;-76
2022/05/06 04:01:18;;;;;;;;;14.60;14.60;;;;;17.69;49.39;99709.09;4996504;28;8860;-76
2022/05/06 04:03:52;;;;;;;;;15.20;14.80;;;;;17.71;49.72;99717.81;5031276;28;9263;-77
2022/05/06 04:06:26;;;;;;;;;14.40;14.40;;;;;17.73;49.77;99710.72;5032517;28;8843;-77
2022/05/06 04:08:56;;;;;;;;;13.40;12.80;;;;;17.74;49.32;99709.81;5032963;28;8808;-77
2022/05/06 04:11:30;;;;;;;;;19.60;17.80;;;;;17.72;49.67;99714.25;5033019;28;8859;-77
2022/05/06 04:14:03;;;;;;;;;12.80;12.80;;;;;17.68;49.68;99717.88;5041858;28;8847;-75
2022/05/06 04:16:34;;;;;;;;;17.00;16.80;;;;;17.67;49.25;99715.28;5054307;28;8844;-75
2022/05/06 04:19:06;;;;;;;;;11.40;11.00;;;;;17.66;49.54;99718.84;5070426;28;8828;-76
2022/05/06 04:24:26;;;;;;;;;12.40;12.40;;;;;17.69;49.26;99722.28;5028791;28;8870;-76
2022/05/06 04:26:56;;;;;;;;;9.60;9.60;;;;;17.73;49.35;99716.00;4996419;28;8850;-76
2022/05/06 04:29:25;;;;;;;;;11.80;11.80;;;;;17.76;49.21;99719.47;5029046;28;8841;-76
2022/05/06 04:31:53;;;;;;;;;15.00;13.40;;;;;17.81;49.05;99725.47;5012012;28;8830;-76
2022/05/06 04:34:22;;;;;;;;;14.60;13.80;;;;;17.82;48.99;99720.13;5028264;28;9674;-77
2022/05/06 04:36:51;;;;;;;;;13.40;13.40;;;;;17.81;48.81;99721.06;4995544;28;8892;-76
2022/05/06 04:39:21;;;;;;;;;11.20;11.20;;;;;17.79;49.13;99732.53;5012296;28;8888;-77
2022/05/06 04:41:53;;;;;;;;;12.80;11.80;;;;;17.84;48.87;99728.91;5012288;28;8884;-76
2022/05/06 04:44:33;;;;;;;;;10.60;10.60;;;;;17.90;48.78;99733.16;5012040;28;8829;-77
2022/05/06 04:47:02;;;;;;;;;14.00;13.80;;;;;17.90;48.59;99727.88;5011877;28;8860;-77
2022/05/06 04:49:32;;;;;;;;;13.00;10.20;;;;;17.96;48.53;99726.84;5011773;28;8841;-77
2022/05/06 04:52:01;;;;;;;;;13.80;12.40;;;;;17.99;48.35;99734.69;5016085;28;8878;-76
2022/05/06 04:54:30;;;;;;;;;14.00;14.00;;;;;18.00;48.52;99739.91;5065519;28;8881;-75
2022/05/06 04:57:01;;;;;;;;;12.60;11.60;;;;;18.03;48.38;99723.97;5048929;28;8867;-75
2022/05/06 04:59:36;;;;;;;;;14.40;14.00;;;;;18.05;48.39;99731.84;5048737;28;8861;-75
2022/05/06 05:02:06;;;;;;;;;14.80;13.60;;;;;18.06;48.46;99726.53;5032586;28;8865;-77
2022/05/06 05:04:34;;;;;;;;;13.00;12.20;;;;;17.99;48.62;99718.84;5032958;28;8839;-75
2022/05/06 05:07:10;;;;;;;;;16.60;15.60;;;;;18.05;48.28;99729.22;5048814;28;8878;-76
2022/05/06 05:09:45;;;;;;;;;16.40;15.60;;;;;18.09;48.57;99715.03;5048583;28;8851;-76
2022/05/06 05:12:16;;;;;;;;;17.40;16.40;;;;;18.14;48.47;99721.03;5049229;28;8842;-76
2022/05/06 05:14:49;;;;;;;;;14.40;12.60;;;;;18.16;48.04;99724.50;5048026;28;8928;-77
2022/05/06 05:17:22;;;;;;;;;13.20;11.20;;;;;18.14;48.79;99731.59;5032014;28;8838;-78
2022/05/06 05:19:53;;;;;;;;;15.00;12.60;;;;;18.16;48.52;99724.50;5048209;28;8916;-76
2022/05/06 05:22:23;;;;;;;;;14.00;13.40;;;;;18.21;48.08;99722.59;4998950;28;8858;-76
2022/05/06 05:24:54;;;;;;;;;12.40;12.20;;;;;18.20;48.27;99725.28;5000169;28;8913;-76
2022/05/06 05:27:23;;;;;;;;;12.40;12.40;;;;;18.28;48.23;99726.81;4982834;28;8874;-78
2022/05/06 05:29:54;;;;;;;;;13.60;12.80;;;;;18.30;47.88;99724.97;5043683;28;8867;-77
2022/05/06 05:32:25;;;;;;;;;13.40;13.40;;;;;18.25;47.88;99726.03;5048206;28;8835;-77
2022/05/06 05:34:55;;;;;;;;;13.00;13.00;;;;;18.34;47.84;99731.03;5032747;28;8839;-77
2022/05/06 05:37:27;;;;;;;;;14.20;13.40;;;;;18.36;47.46;99723.06;4999554;28;8866;-77
2022/05/06 05:40:00;;;;;;;;;13.00;13.00;;;;;18.37;47.54;99725.66;5065104;28;8946;-77
2022/05/06 05:42:30;;;;;;;;;13.40;13.40;;;;;18.36;47.75;99731.00;5065095;28;8900;-77
2022/05/06 05:50:42;;;;;;;;;12.40;12.40;;;;;18.53;47.66;99734.00;5048265;28;8834;-79
2022/05/06 05:53:12;;;;;;;;;12.20;12.00;;;;;18.55;47.23;99726.88;5030960;28;8871;-75
2022/05/06 05:55:42;;;;;;;;;16.80;14.40;;;;;18.60;47.21;99732.91;5031046;28;8896;-78
2022/05/06 05:58:16;;;;;;;;;13.60;13.60;;;;;18.64;47.37;99723.97;5064133;28;8868;-78
2022/05/06 06:00:48;;;;;;;;;13.20;12.40;;;;;18.66;47.25;99727.44;5047925;28;8976;-76
2022/05/06 06:03:18;;;;;;;;;14.40;14.20;;;;;18.67;47.23;99730.91;5056653;28;8882;-76
2022/05/06 06:05:47;;;;;;;;;13.40;13.40;;;;;18.70;46.93;99726.41;5067577;28;8960;-75
2022/05/06 06:08:16;;;;;;;;;15.40;13.60;;;;;18.76;46.83;99728.00;5051241;28;8869;-76
2022/05/06 06:10:45;;;;;;;;;14.00;13.20;;;;;18.77;46.92;99736.78;5069551;28;8842;-77
2022/05/06 06:13:17;;;;;;;;;16.80;14.20;;;;;18.82;46.89;99730.47;5068017;28;8852;-76
2022/05/06 06:15:50;;;;;;;;;16.40;15.80;;;;;18.83;47.20;99726.06;5051576;28;8964;-78
2022/05/06 06:18:26;;;;;;;;;15.00;13.60;;;;;18.85;47.13;99725.09;5051372;28;8848;-77
2022/05/06 06:20:57;;;;;;;;;15.80;15.40;;;;;18.87;47.21;99730.34;5067361;28;8847;-77
2022/05/06 06:23:27;;;;;;;;;13.40;13.40;;;;;18.77;47.69;99729.75;5067144;28;8875;-78
2022/05/06 06:26:00;;;;;;;;;14.60;14.60;;;;;18.84;47.36;99735.72;5050652;28;8927;-76
2022/05/06 06:28:30;;;;;;;;;14.00;13.20;;;;;18.87;47.74;99727.69;5067449;28;9593;-78
2022/05/06 06:31:00;;;;;;;;;16.00;15.60;;;;;18.93;47.46;99724.84;5067697;28;8848;-77
2022/05/06 06:33:29;;;;;;;;;13.80;13.40;;;;;18.94;47.54;99729.25;5067336;28;8907;-77
2022/05/06 06:35:58;;;;;;;;;16.80;16.00;;;;;18.92;47.34;99731.03;5063917;28;8851;-78
2022/05/06 06:38:31;;;;;;;;;17.00;16.00;;;;;18.98;47.30;99728.22;5063680;28;8854;-78
2022/05/06 06:41:00;;;;;;;;;15.80;15.20;;;;;19.01;47.61;99719.31;5063760;28;8877;-78
2022/05/06 06:43:29;;;;;;;;;16.80;15.00;;;;;19.07;47.29;99717.34;5048113;28;8851;-76
2022/05/06 06:46:28;;;;;;;;;16.80;16.00;;;;;19.20;46.78;99724.88;4974105;28;8884;-77
2022/05/06 06:49:11;;;;;;;;;15.60;15.00;;;;;19.28;47.04;99728.13;4950656;28;8864;-78
2022/05/06 06:51:58;;;;;;;;;13.40;13.40;;;;;19.39;46.64;99727.75;4966551;28;8922;-77
2022/05/06 06:54:28;;;;;;;;;16.60;15.40;;;;;19.39;46.67;99728.63;4982724;28;8971;-77
2022/05/06 06:56:56;;;;;;;;;14.20;14.20;;;;;19.42;46.72;99735.59;4935056;28;8848;-77
2022/05/06 06:59:25;;;;;;;;;13.40;13.40;;;;;19.46;46.41;99734.56;4967133;28;8828;-77
2022/05/06 07:01:55;;;;;;;;;16.00;16.00;;;;;19.54;46.44;99729.88;4967015;28;8844;-77
2022/05/06 07:04:23;;;;;;;;;18.80;16.60;;;;;19.56;46.46;99737.75;4950463;28;8849;-78
2022/05/06 07:12:25;;;;;;;;;17.00;16.40;;;;;19.85;46.35;99724.41;4966723;28;9686;-77
2022/05/06 07:14:54;;;;;;;;;14.60;14.60;;;;;19.86;46.08;99712.91;4966438;28;8983;-77
2022/05/06 07:17:24;;;;;;;;;17.00;17.00;;;;;19.88;46.11;99722.56;4966741;28;8947;-78
2022/05/06 07:19:53;;;;;;;;;17.00;15.80;;;;;19.89;46.29;99729.63;4956233;28;8834;-77
2022/05/06 07:22:22;;;;;;;;;17.20;15.80;;;;;19.93;46.40;99728.59;5015016;28;8869;-77
2022/05/06 07:24:55;;;;;;;;;13.60;13.60;;;;;20.04;46.15;99732.56;5047593;28;8858;-77
2022/05/06 07:27:23;;;;;;;;;14.80;14.80;;;;;20.16;45.71;99733.03;5029915;28;8923;-77
2022/05/06 07:29:52;;;;;;;;;14.60;14.60;;;;;20.17;45.46;99735.63;5045076;28;8858;-77
2022/05/06 07:32:21;;;;;;;;;12.60;12.60;;;;;20.33;45.24;99730.59;5045288;28;8850;-76
2022/05/06 07:34:51;;;;;;;;;15.60;14.80;;;;;20.43;45.03;99734.66;5045325;28;9183;-77
2022/05/06 07:37:19;;;;;;;;;13.60;13.60;;;;;20.50;44.66;99729.97;5046042;28;9592;-77
2022/05/06 07:39:48;;;;;;;;;14.40;14.40;;;;;20.56;44.31;99727.06;5053883;28;8846;-75
2022/05/06 07:42:17;;;;;;;;;14.60;13.40;;;;;20.63;44.01;99725.94;5051766;28;8959;-77
2022/05/06 07:44:45;;;;;;;;;18.20;16.40;;;;;20.66;44.11;99727.59;5082186;28;8905;-78
2022/05/06 07:47:14;;;;;;;;;15.80;15.00;;;;;20.73;43.57;99737.06;5044520;28;8849;-76
2022/05/06 07:49:50;;;;;;;;;14.60;14.60;;;;;20.79;43.32;99733.28;5012647;28;8840;-77
2022/05/06 07:52:19;;;;;;;;;16.20;15.00;;;;;20.83;43.13;99729.59;5016295;28;8856;-77
2022/05/06 07:54:48;;;;;;;;;14.00;14.00;;;;;20.88;42.76;99732.94;5028496;28;8902;-78
2022/05/06 07:57:17;;;;;;;;;15.60;15.60;;;;;20.92;42.55;99734.53;5012204;28;8848;-76
2022/05/06 07:59:46;;;;;;;;;14.00;13.60;;;;;20.98;42.55;99736.97;5011871;28;8864;-77
2022/05/06 08:05:02;;;;;;;;;14.80;13.40;;;;;21.09;42.56;99736.50;5031891;28;8976;-77
2022/05/06 08:07:31;;;;;;;;;16.00;15.40;;;;;21.12;42.79;99749.66;5031819;28;8835;-78
2022/05/06 08:09:59;;;;;;;;;13.00;13.00;;;;;21.21;42.56;99749.28;5031646;28;8862;-76
2022/05/06 08:12:28;;;;;;;;;14.60;14.40;;;;;21.40;41.90;99746.72;5048541;28;8836;-77
2022/05/06 08:14:56;;;;;;;;;15.00;15.00;;;;;21.40;41.73;99746.72;5048685;28;8872;-77
2022/05/06 08:17:25;;;;;;;;;15.40;15.40;;;;;21.53;41.53;99747.09;5050391;28;8900;-76
2022/05/06 08:19:55;;;;;;;;;15.80;14.20;;;;;21.53;41.61;99751.53;5051795;28;8855;-76
2022/05/06 08:22:25;;;;;;;;;14.60;12.40;;;;;21.59;41.12;99752.13;5071159;28;8997;-76
2022/05/06 08:24:54;;;;;;;;;14.80;14.80;;;;;21.56;41.26;99752.25;5051310;28;8887;-77
2022/05/06 08:27:45;;;;;;;;;14.60;13.60;;;;;21.60;40.92;99747.69;5051561;28;9082;-78
2022/05/06 08:30:14;;;;;;;;;13.80;13.60;;;;;21.72;41.15;99751.59;5051224;28;8857;-77
2022/05/06 08:32:43;;;;;;;;;15.20;15.00;;;;;21.82;41.25;99747.63;5027927;28;9505;-75
2022/05/06 08:35:12;;;;;;;;;15.60;14.40;;;;;21.81;41.41;99745.88;5028039;28;8861;-77
2022/05/06 08:37:43;;;;;;;;;13.20;12.60;;;;;21.91;40.93;99746.34;5028217;28;8861;-77
2022/05/06 08:40:18;;;;;;;;;12.20;12.20;;;;;22.13;40.33;99755.09;5028010;28;8845;-78
2022/05/06 08:42:47;;;;;;;;;13.80;13.00;;;;;22.06;39.85;99751.00;5027809;28;8853;-77
2022/05/06 08:50:54;;;;;;;;;14.00;12.40;;;;;22.26;39.21;99747.47;5026494;28;8954;-77
2022/05/06 08:53:27;;;;;;;;;13.40;12.60;;;;;22.31;39.51;99752.59;5027525;28;8854;-77
2022/05/06 08:55:58;;;;;;;;;13.40;12.00;;;;;22.30;39.40;99750.84;5011078;28;8874;-76
2022/05/06 08:58:28;;;;;;;;;12.60;11.80;;;;;22.46;39.36;99751.88;5010684;28;8887;-77
2022/05/06 09:01:03;;;;;;;;;11.00;10.20;;;;;22.60;38.75;99763.66;5010807;28;8964;-78
2022/05/06 09:03:31;;;;;;;;;14.20;12.40;;;;;22.67;38.56;99751.81;5045161;28;8937;-76
2022/05/06 09:06:01;;;;;;;;;13.60;13.60;;;;;22.71;38.76;99756.91;4997735;28;8856;-78
2022/05/06 09:08:38;;;;;;;;;14.60;13.00;;;;;22.86;38.87;99757.13;4997834;28;8881;-75
2022/05/06 09:11:08;;;;;;;;;15.00;14.60;;;;;22.96;38.29;99756.56;5065321;28;8868;-76
2022/05/06 09:13:38;;;;;;;;;12.60;12.60;;;;;23.07;37.95;99757.91;5066671;28;8858;-78
2022/05/06 09:19:25;;;;;;;;;12.00;10.60;;;;;23.12;36.89;99758.56;5049638;28;8941;-77
2022/05/06 09:22:09;;;;;;;;;9.00;9.00;;;;;23.26;36.82;99757.84;4987618;28;8880;-78
2022/05/06 09:24:40;;;;;;;;;8.60;8.60;;;;;23.30;37.05;99746.97;4971471;28;8858;-76
2022/05/06 09:27:10;;;;;;;;;12.60;12.20;;;;;23.45;36.06;99753.31;4987498;28;8861;-77
2022/05/06 09:29:41;;;;;;;;;11.00;11.00;;;;;23.48;35.72;99753.19;4987594;28;8858;-78
2022/05/06 09:32:20;;;;;;;;;10.80;10.80;;;;;23.60;35.51;99743.72;4987332;28;8846;-77
2022/05/06 09:34:51;;;;;;;;;15.40;14.00;;;;;23.73;35.79;99759.91;5007302;28;9001;-77
2022/05/06 09:37:39;;;;;;;;;12.20;10.40;;;;;23.87;35.22;99760.06;5007359;28;8855;-77
2022/05/06 09:40:11;;;;;;;;;12.80;11.40;;;;;23.93;35.19;99759.78;4990485;28;8843;-78
2022/05/06 09:42:42;;;;;;;;;11.40;10.80;;;;;24.05;35.29;99766.25;5006982;28;8909;-77
2022/05/06 09:45:12;;;;;;;;;11.00;11.00;;;;;24.25;35.03;99759.88;5006758;28;8855;-79
2022/05/06 09:47:42;;;;;;;;;12.00;12.00;;;;;24.45;34.85;99765.94;5006866;28;8840;-79
2022/05/06 09:50:12;;;;;;;;;12.40;10.00;;;;;24.59;34.15;99760.72;5006257;28;8844;-76
2022/05/06 09:52:40;;;;;;;;;8.60;8.60;;;;;24.74;33.88;99756.34;5006494;28;8844;-77
2022/05/06 09:55:12;;;;;;;;;10.40;10.00;;;;;24.92;33.10;99758.94;4990502;28;8868;-77
2022/05/06 09:57:42;;;;;;;;;14.00;12.20;;;;;24.76;33.30;99762.44;4990384;28;8938;-77
2022/05/06 10:00:11;;;;;;;;;11.00;11.00;;;;;24.91;32.96;99760.72;5046746;28;8862;-79
2022/05/06 10:02:40;;;;;;;;;11.80;11.40;;;;;24.86;32.61;99762.81;5048832;28;8913;-77
2022/05/06 10:05:10;;;;;;;;;11.00;11.00;;;;;24.78;32.80;99770.38;5048708;28;8835;-76
2022/05/06 10:07:43;;;;;;;;;11.40;11.40;;;;;24.78;32.65;99757.88;5048625;28;8896;-76
2022/05/06 10:10:21;;;;;;;;;11.80;11.60;;;;;24.97;32.00;99749.72;5047277;28;8967;-77
2022/05/06 10:12:55;;;;;;;;;10.00;10.00;;;;;24.96;31.67;99764.00;5030639;28;8835;-77
2022/05/06 10:15:28;;;;;;;;;12.40;11.40;;;;;25.03;31.67;99756.53;5047192;28;8863;-78
2022/05/06 10:17:59;;;;;;;;;11.60;11.00;;;;;25.21;31.93;99757.25;5048605;28;8855;-77
2022/05/06 10:20:58;;;;;;;;;12.00;11.00;;;;;25.12;30.91;99752.44;5029560;28;8920;-77
2022/05/06 10:23:47;;;;;;;;;11.60;11.60;;;;;25.22;30.78;99756.34;5063650;28;8985;-78
2022/05/06 10:26:48;;;;;;;;;13.80;12.80;;;;;25.08;31.21;99758.00;5047891;28;8859;-77
2022/05/06 10:32:28;;;;;;;;;13.20;13.20;;;;;25.38;31.23;99745.63;5048419;28;8875;-78
2022/05/06 10:35:10;;;;;;;;;12.80;12.40;;;;;25.56;30.78;99738.34;5048306;28;8963;-77
2022/05/06 10:37:41;;;;;;;;;9.60;9.60;;;;;25.59;30.50;99751.50;5046630;28;8877;-76
2022/05/06 10:40:32;;;;;;;;;12.00;11.00;;;;;25.56;30.49;99752.56;5048324;28;8945;-76
2022/05/06 10:43:04;;;;;;;;;12.00;10.40;;;;;25.61;30.95;99754.94;5046516;28;8944;-77
2022/05/06 10:45:35;;;;;;;;;10.20;10.20;;;;;25.73;30.26;99750.69;5047765;28;8977;-76
2022/05/06 10:48:22;;;;;;;;;14.60;11.60;;;;;25.72;30.40;99739.13;5047672;28;8877;-78
2022/05/06 10:50:51;;;;;;;;;11.40;11.40;;;;;25.83;30.38;99741.16;5048218;28;8851;-77
2022/05/06 10:53:35;;;;;;;;;9.80;9.40;;;;;25.87;29.38;99742.69;5047895;28;8854;-78
2022/05/06 10:56:03;;;;;;;;;10.80;10.80;;;;;25.88;30.18;99737.28;5047771;28;8854;-77
2022/05/06 10:58:33;;;;;;;;;10.60;10.40;;;;;25.98;29.80;99739.41;5030227;28;8900;-77
2022/05/06 11:01:02;;;;;;;;;10.60;10.00;;;;;25.82;29.47;99724.28;5048074;28;9077;-77
2022/05/06 11:03:31;;;;;;;;;8.80;8.20;;;;;26.00;29.51;99733.00;5046973;28;8859;-77
2022/05/06 11:06:00;;;;;;;;;9.60;9.60;;;;;26.02;29.17;99727.56;5047968;28;8831;-77
2022/05/06 11:08:33;;;;;;;;;10.80;10.80;;;;;26.12;28.96;99722.50;5028414;28;8994;-76
2022/05/06 11:11:02;;;;;;;;;12.00;11.00;;;;;26.21;28.85;99727.28;5033050;28;8880;-75
2022/05/06 11:13:35;;;;;;;;;9.40;9.00;;;;;26.38;28.97;99720.88;5068526;28;8972;-77
2022/05/06 11:16:09;;;;;;;;;12.40;12.40;;;;;26.45;28.50;99725.75;5070080;28;8842;-76
2022/05/06 11:18:44;;;;;;;;;10.60;10.60;;;;;26.40;28.91;99721.66;5053344;28;8849;-77
2022/05/06 11:21:23;;;;;;;;;12.40;12.40;;;;;26.55;29.14;99725.16;5053417;28;10096;-78
2022/05/06 11:23:51;;;;;;;;;13.60;11.80;;;;;26.64;28.62;99709.41;5069870;28;8956;-78
2022/05/06 11:26:26;;;;;;;;;11.20;11.20;;;;;26.66;28.66;99708.47;5069229;28;8846;-76
2022/05/06 11:29:03;;;;;;;;;10.40;10.40;;;;;26.82;28.47;99717.19;5035954;28;8938;-78
2022/05/06 11:31:33;;;;;;;;;10.60;9.20;;;;;26.94;28.42;99707.53;5052284;28;8865;-78
2022/05/06 11:34:04;;;;;;;;;9.40;9.00;;;;;27.05;28.10;99715.66;5052254;28;8841;-78
2022/05/06 11:36:34;;;;;;;;;12.20;12.20;;;;;27.05;27.95;99713.00;5051884;28;9653;-76
2022/05/06 11:39:11;;;;;;;;;11.60;11.60;;;;;27.10;28.22;99699.31;5064200;28;8851;-78
2022/05/06 11:41:39;;;;;;;;;12.20;11.60;;;;;27.14;28.13;99698.16;5015956;28;8850;-76
2022/05/06 11:44:10;;;;;;;;;11.40;10.40;;;;;27.31;28.18;99705.94;5066600;28;8990;-78
2022/05/06 11:49:46;;;;;;;;;13.80;11.80;;;;;27.34;27.87;99702.19;5051379;28;8854;-76
2022/05/06 11:52:14;;;;;;;;;11.60;11.00;;;;;27.31;28.17;99695.22;5016901;28;8881;-79
2022/05/06 11:54:43;;;;;;;;;11.60;11.60;;;;;27.28;28.12;99694.56;5053742;28;8861;-78
2022/05/06 11:57:15;;;;;;;;;11.80;11.80;;;;;27.28;27.98;99697.25;5057602;28;8851;-77
2022/05/06 11:59:45;;;;;;;;;10.60;10.60;;;;;27.14;28.24;99690.97;5057898;28;8877;-77
2022/05/06 12:02:14;;;;;;;;;14.40;12.40;;;;;27.10;28.47;99689.47;5068658;28;8927;-77
2022/05/06 12:04:43;;;;;;;;;12.00;12.00;;;;;27.16;28.05;99686.34;5051923;28;8838;-77
2022/05/06 12:07:12;;;;;;;;;11.80;11.00;;;;;27.01;28.29;99692.75;5051877;28;8862;-78
2022/05/06 12:09:44;;;;;;;;;12.40;11.20;;;;;27.08;28.28;99691.38;5033613;28;9438;-77
2022/05/06 12:12:13;;;;;;;;;13.80;12.60;;;;;27.15;28.48;99687.34;5052813;28;8961;-78
2022/05/06 12:14:42;;;;;;;;;13.60;12.60;;;;;27.22;28.42;99693.13;5052890;28;8916;-76
2022/05/06 12:17:14;;;;;;;;;15.60;12.40;;;;;27.26;28.85;99689.34;5050760;28;8923;-77
2022/05/06 12:19:45;;;;;;;;;12.00;12.00;;;;;27.37;28.53;99684.09;5053521;28;8939;-77
2022/05/06 12:22:15;;;;;;;;;12.80;12.20;;;;;27.34;28.54;99686.97;5068259;28;8932;-77
2022/05/06 12:24:45;;;;;;;;;14.20;13.60;;;;;27.28;28.46;99686.53;5032996;28;9672;-77
2022/05/06 12:27:24;;;;;;;;;15.80;13.80;;;;;27.17;29.22;99676.53;5032513;28;8885;-76